This is the latest recevied weather packets stored in our database for station/object WA9AFM-10. If no packets are shown the sender has not sent any weather packets the latest 10 day(s).
| Time | Temp. | Humidity | Pressure | Rain* | Wind** | Luminosity | Snow |
|---|---|---|---|---|---|---|---|
| 1777461001 | 9.44° C | 91% | 1012.9 hPa | 0 mm | - | - | - |
| 1777459240 | 9.44° C | 91% | 1013.3 hPa | 0 mm | - | - | - |
| 1777459201 | 9.44° C | 91% | 1013.3 hPa | 0 mm | - | - | - |
| 1777457402 | 10° C | 91% | 1013.5 hPa | 0 mm | - | - | - |
| 1777455602 | 10° C | 92% | 1013.3 hPa | 0 mm | - | - | - |
| 1777455493 | 10° C | 92% | 1012.9 hPa | 0 mm | - | - | - |
| 1777453802 | 10° C | 92% | 1012.9 hPa | 0 mm | - | - | - |
| 1777452001 | 10.56° C | 92% | 1013.3 hPa | 0 mm | - | - | - |
| 1777450201 | 10° C | 93% | 1013.4 hPa | 0 mm | - | - | - |
| 1777448402 | 10° C | 93% | 1013.9 hPa | 0 mm | - | - | - |
| 1777446602 | 10° C | 91% | 1013.6 hPa | 0 mm | - | - | - |
| 1777444801 | 11.11° C | 89% | 1013.1 hPa | 0 mm | - | - | - |
| 1777443312 | 11.67° C | 88% | 1012 hPa | 0 mm | - | - | - |
| 1777443001 | 11.67° C | 88% | 1012 hPa | 0 mm | - | - | - |
| 1777441212 | 12.22° C | 87% | 1011.7 hPa | 0 mm | - | - | - |
| 1777439401 | 12.78° C | 85% | 1011.6 hPa | 0 mm | - | - | - |
| 1777437602 | 13.33° C | 83% | 1011.1 hPa | 0 mm | - | - | - |
| 1777435801 | 13.89° C | 84% | 1011.3 hPa | 0 mm | - | - | - |
| 1777434001 | 13.89° C | 84% | 1011 hPa | 0 mm | - | - | - |
| 1777432202 | 14.44° C | 83% | 1010.8 hPa | 0 mm | - | - | - |
| 1777430402 | 15° C | 82% | 1010.4 hPa | 0 mm | - | - | - |
| 1777428601 | 14.44° C | 83% | 1009.8 hPa | 0 mm | - | - | - |
| 1777426803 | 15.56° C | 80% | 1009.1 hPa | 0 mm | - | - | - |
| 1777425002 | 16.67° C | 76% | 1008.7 hPa | 0 mm | - | - | - |
| 1777421401 | 17.78° C | 72% | 1008.4 hPa | 0 mm | - | - | - |
* Rain latest hour (hover to see other rain measurements)
** Current wind speed in m/s (hover to see current wind gust speed)